Time;durP1;ratioP1;P1;durP2;ratioP2;P2;SDS_P1;SDS_P2;PMS_P1;PMS_P2;Temp;Humidity;BMP_temperature;BMP_pressure;BME280_temperature;BME280_humidity;BME280_pressure;Samples;Min_cycle;Max_cycle;Signal;HPM_P1;HPM_P2
2023/08/04 00:00:47;;;;;;;0.50;0.50;;;25.70;57.80;;;;;;219295;1287;23169;-48
2023/08/04 00:06:11;;;;;;;0.70;0.70;;;25.60;57.80;;;;;;219258;1283;24299;-53
2023/08/04 00:11:15;;;;;;;0.80;0.70;;;25.60;57.80;;;;;;219510;1286;22660;-52
2023/08/04 00:16:19;;;;;;;0.50;0.50;;;25.70;57.70;;;;;;219332;1280;22534;-51
2023/08/04 00:21:24;;;;;;;0.70;0.70;;;25.60;57.60;;;;;;219382;1285;22527;-49
2023/08/04 00:26:37;;;;;;;0.90;0.70;;;25.60;57.60;;;;;;219462;1280;22530;-52
2023/08/04 00:31:48;;;;;;;0.60;0.60;;;25.60;57.70;;;;;;219267;1287;22541;-55
2023/08/04 00:36:53;;;;;;;0.80;0.50;;;25.60;57.70;;;;;;219359;1286;24388;-52
2023/08/04 00:41:58;;;;;;;1.10;0.90;;;25.60;57.60;;;;;;219643;1283;22551;-52
2023/08/04 00:47:07;;;;;;;0.40;0.40;;;25.60;57.80;;;;;;219276;1280;22530;-51
2023/08/04 00:52:11;;;;;;;0.80;0.70;;;25.50;57.80;;;;;;219292;1285;24443;-50
2023/08/04 00:57:15;;;;;;;0.70;0.70;;;25.50;57.80;;;;;;219422;1280;25742;-51
2023/08/04 01:02:19;;;;;;;0.70;0.70;;;25.50;57.80;;;;;;219482;1286;22720;-49
2023/08/04 01:07:27;;;;;;;0.90;0.70;;;25.50;57.80;;;;;;219371;1284;22591;-51
2023/08/04 01:12:43;;;;;;;0.60;0.60;;;25.50;58.20;;;;;;219536;1284;22544;-51
2023/08/04 01:17:47;;;;;;;1.80;0.50;;;25.50;57.40;;;;;;219404;1282;22631;-56
2023/08/04 01:22:52;;;;;;;0.70;0.70;;;25.40;57.80;;;;;;219450;1274;22556;-50
2023/08/04 01:28:00;;;;;;;0.50;0.50;;;25.40;57.80;;;;;;219610;1285;24313;-51
2023/08/04 01:33:04;;;;;;;0.80;0.70;;;25.40;57.80;;;;;;219406;1287;22657;-52
2023/08/04 01:38:09;;;;;;;0.70;0.70;;;25.40;57.90;;;;;;219483;1285;25374;-51
2023/08/04 01:43:15;;;;;;;0.50;0.50;;;25.40;57.90;;;;;;219276;1287;25566;-49
2023/08/04 01:48:19;;;;;;;0.60;0.50;;;25.40;57.90;;;;;;219260;1287;22674;-52
2023/08/04 01:53:23;;;;;;;0.70;0.70;;;25.40;57.80;;;;;;219491;1272;25534;-55
2023/08/04 01:58:28;;;;;;;0.60;0.60;;;25.40;57.90;;;;;;219354;1280;22611;-53
2023/08/04 02:03:34;;;;;;;0.70;0.70;;;25.40;57.90;;;;;;219250;1287;22538;-53
2023/08/04 02:08:38;;;;;;;1.60;0.60;;;25.40;57.80;;;;;;219465;1287;24257;-54
2023/08/04 02:13:43;;;;;;;0.60;0.60;;;25.40;57.80;;;;;;218856;1287;499354;-54
2023/08/04 02:18:47;;;;;;;0.50;0.50;;;25.40;57.90;;;;;;219569;1287;25397;-57
2023/08/04 02:23:51;;;;;;;0.60;0.60;;;25.30;57.90;;;;;;219324;1285;22527;-53
2023/08/04 02:28:56;;;;;;;1.20;0.70;;;25.40;57.90;;;;;;219375;1276;25350;-53
2023/08/04 02:34:00;;;;;;;0.80;0.50;;;25.40;57.70;;;;;;219713;1273;23580;-52
2023/08/04 02:39:05;;;;;;;0.70;0.60;;;25.40;57.60;;;;;;219424;1283;22546;-53
2023/08/04 02:44:09;;;;;;;0.70;0.70;;;25.40;57.60;;;;;;219384;1283;24221;-51
2023/08/04 02:49:14;;;;;;;1.30;0.60;;;25.40;57.60;;;;;;219321;1283;24300;-53
2023/08/04 02:54:21;;;;;;;0.40;0.40;;;25.40;57.70;;;;;;219388;1286;22718;-52
2023/08/04 02:59:25;;;;;;;0.60;0.60;;;25.40;57.60;;;;;;219554;1286;25364;-50
2023/08/04 03:04:34;;;;;;;1.50;1.00;;;25.50;57.60;;;;;;219417;1284;24074;-52
2023/08/04 03:09:39;;;;;;;0.70;0.70;;;25.40;57.60;;;;;;219437;1280;22720;-54
2023/08/04 03:14:43;;;;;;;0.50;0.50;;;25.40;57.60;;;;;;219439;1286;22682;-53
2023/08/04 03:19:47;;;;;;;0.60;0.60;;;25.40;57.50;;;;;;219459;1280;22549;-53
2023/08/04 03:24:51;;;;;;;0.90;0.70;;;25.40;57.60;;;;;;219396;1283;22551;-53
2023/08/04 03:29:56;;;;;;;0.90;0.60;;;25.40;57.60;;;;;;219316;1283;22595;-53
2023/08/04 03:35:00;;;;;;;0.70;0.70;;;25.40;58.00;;;;;;219352;1286;22689;-52
2023/08/04 03:40:05;;;;;;;1.20;0.70;;;25.30;58.00;;;;;;219414;1286;22631;-54
2023/08/04 03:45:09;;;;;;;0.60;0.50;;;25.40;57.50;;;;;;219450;1287;24380;-53
2023/08/04 03:50:16;;;;;;;0.70;0.70;;;25.40;58.00;;;;;;219199;1287;25516;-52
2023/08/04 03:55:29;;;;;;;0.70;0.70;;;25.40;57.60;;;;;;219421;1286;23249;-54
2023/08/04 04:00:33;;;;;;;0.70;0.50;;;25.30;58.00;;;;;;219429;1280;22528;-54
2023/08/04 04:05:38;;;;;;;0.70;0.50;;;25.30;57.60;;;;;;219416;1273;22540;-53
2023/08/04 04:10:47;;;;;;;0.70;0.70;;;25.30;58.10;;;;;;219648;1280;22559;-51
2023/08/04 04:15:51;;;;;;;0.70;0.70;;;25.30;58.00;;;;;;219400;1280;22534;-50
2023/08/04 04:20:55;;;;;;;0.90;0.80;;;25.30;57.60;;;;;;219206;1272;22531;-51
2023/08/04 04:26:00;;;;;;;0.60;0.60;;;25.30;57.70;;;;;;219532;1287;22771;-51
2023/08/04 04:31:08;;;;;;;0.70;0.70;;;25.30;57.60;;;;;;219442;1286;22634;-50
2023/08/04 04:36:12;;;;;;;0.70;0.70;;;25.20;58.10;;;;;;219499;1286;22652;-51
2023/08/04 04:41:27;;;;;;;0.90;0.80;;;25.20;57.60;;;;;;219641;1283;22773;-50
2023/08/04 04:46:31;;;;;;;0.90;0.90;;;25.20;57.70;;;;;;219361;1283;22550;-50
2023/08/04 04:51:35;;;;;;;0.80;0.80;;;25.20;57.70;;;;;;219470;1286;22801;-51
2023/08/04 04:56:48;;;;;;;;;;;25.20;57.70;;;;;;219342;1286;22644;-53
2023/08/04 05:01:52;;;;;;;1.30;0.90;;;25.20;57.70;;;;;;219403;1280;23935;-48
2023/08/04 05:06:56;;;;;;;0.90;0.80;;;25.20;57.60;;;;;;219637;1279;22534;-48
2023/08/04 05:12:00;;;;;;;1.30;0.90;;;25.30;58.10;;;;;;219385;1286;22599;-49
2023/08/04 05:17:04;;;;;;;1.20;1.00;;;25.10;57.90;;;;;;219540;1283;22555;-51
2023/08/04 05:22:09;;;;;;;0.80;0.80;;;25.10;57.90;;;;;;219416;1282;22593;-51
2023/08/04 05:27:13;;;;;;;1.10;1.00;;;25.20;57.80;;;;;;219586;1285;22551;-50
2023/08/04 05:32:17;;;;;;;1.00;0.90;;;25.10;57.80;;;;;;219539;1283;22720;-50
2023/08/04 05:37:22;;;;;;;1.00;0.90;;;25.20;57.80;;;;;;219483;1280;23896;-47
2023/08/04 05:42:26;;;;;;;0.80;0.80;;;25.20;57.80;;;;;;219449;1280;22543;-49
2023/08/04 05:47:30;;;;;;;1.20;1.10;;;25.20;58.00;;;;;;219623;1286;22538;-50
2023/08/04 05:52:34;;;;;;;1.30;1.00;;;25.20;57.80;;;;;;219372;1276;23916;-49
2023/08/04 05:57:39;;;;;;;1.30;1.10;;;25.20;57.80;;;;;;219327;1280;24514;-51
2023/08/04 06:02:44;;;;;;;1.50;1.30;;;25.20;57.80;;;;;;219579;1286;22667;-53
2023/08/04 06:07:49;;;;;;;1.00;0.90;;;25.20;57.70;;;;;;219537;1283;22549;-50
2023/08/04 06:12:53;;;;;;;0.70;0.70;;;25.20;57.80;;;;;;219418;1283;22612;-49
2023/08/04 06:17:57;;;;;;;1.00;0.90;;;25.30;57.70;;;;;;219452;1286;22560;-52
2023/08/04 06:23:02;;;;;;;1.40;1.20;;;25.30;57.60;;;;;;219310;1283;23559;-50
2023/08/04 06:28:06;;;;;;;1.10;1.00;;;25.30;57.50;;;;;;219541;1286;22700;-53
2023/08/04 06:33:11;;;;;;;1.30;0.90;;;25.30;57.70;;;;;;219372;1285;22554;-59
2023/08/04 06:38:16;;;;;;;3.40;1.00;;;25.20;57.70;;;;;;219333;1280;24264;-56
2023/08/04 06:43:22;;;;;;;1.70;0.90;;;25.00;57.90;;;;;;219586;1280;24251;-57
2023/08/04 06:48:28;;;;;;;2.90;1.00;;;25.00;57.50;;;;;;219238;1279;22534;-57
2023/08/04 06:53:33;;;;;;;1.40;1.10;;;24.90;57.80;;;;;;219417;1286;22566;-55
2023/08/04 06:58:40;;;;;;;3.10;1.10;;;25.00;57.20;;;;;;219132;1280;25941;-55
2023/08/04 07:03:47;;;;;;;2.50;0.70;;;24.90;57.00;;;;;;219338;1285;22537;-57
2023/08/04 07:08:51;;;;;;;6.50;1.30;;;24.90;56.80;;;;;;219376;1283;22520;-59
2023/08/04 07:13:56;;;;;;;2.20;1.30;;;24.90;57.20;;;;;;219438;1285;24291;-57
2023/08/04 07:19:00;;;;;;;0.90;0.80;;;24.90;56.70;;;;;;219609;1286;24238;-57
2023/08/04 07:24:05;;;;;;;1.70;1.00;;;24.90;56.60;;;;;;219237;1276;22806;-58
2023/08/04 07:29:09;;;;;;;2.40;1.70;;;24.80;56.50;;;;;;219249;1280;24235;-59
2023/08/04 07:34:13;;;;;;;4.80;1.30;;;24.90;56.40;;;;;;219411;1271;22596;-57
2023/08/04 07:39:17;;;;;;;3.10;1.20;;;24.90;56.90;;;;;;219115;1286;22531;-52
2023/08/04 07:44:21;;;;;;;1.50;0.80;;;24.90;56.30;;;;;;219181;1280;22530;-52
2023/08/04 07:49:25;;;;;;;2.10;1.10;;;24.80;56.50;;;;;;219473;1283;24228;-53
2023/08/04 07:54:29;;;;;;;2.30;1.20;;;24.90;56.00;;;;;;219140;1279;23920;-51
2023/08/04 07:59:36;;;;;;;1.50;0.90;;;25.00;55.90;;;;;;219235;1280;22531;-60
2023/08/04 08:04:41;;;;;;;4.80;0.90;;;25.00;55.80;;;;;;219391;1283;22527;-49
2023/08/04 08:09:45;;;;;;;1.80;1.30;;;25.00;55.70;;;;;;219585;1280;25592;-50
2023/08/04 08:14:49;;;;;;;1.00;0.60;;;25.10;55.60;;;;;;219303;1283;22560;-50
2023/08/04 08:19:53;;;;;;;0.90;0.90;;;25.00;56.10;;;;;;219302;1280;22546;-51
2023/08/04 08:24:58;;;;;;;1.70;0.70;;;25.10;56.00;;;;;;219516;1283;22614;-51
2023/08/04 08:30:02;;;;;;;2.20;1.00;;;25.10;55.90;;;;;;219339;1280;24773;-59
2023/08/04 08:35:07;;;;;;;1.30;0.50;;;25.30;55.60;;;;;;219462;1285;22493;-52
2023/08/04 08:40:11;;;;;;;1.10;0.80;;;25.30;55.30;;;;;;219352;1286;25474;-53
2023/08/04 08:45:15;;;;;;;1.50;0.60;;;25.30;55.90;;;;;;219302;1280;22534;-53
2023/08/04 08:50:23;;;;;;;2.40;0.60;;;25.40;55.70;;;;;;219385;1280;22818;-51
2023/08/04 08:55:28;;;;;;;3.60;0.90;;;25.50;55.30;;;;;;219531;1272;23816;-52
2023/08/04 09:00:35;;;;;;;1.80;0.80;;;25.40;55.60;;;;;;219524;1286;22546;-51
2023/08/04 09:05:38;;;;;;;1.20;0.70;;;25.30;56.20;;;;;;219546;1286;22536;-52
2023/08/04 09:10:44;;;;;;;4.00;1.10;;;25.30;56.70;;;;;;219393;1272;24325;-52
2023/08/04 09:15:51;;;;;;;1.20;0.70;;;25.40;55.30;;;;;;219148;1274;22679;-54
2023/08/04 09:21:11;;;;;;;0.70;0.50;;;25.40;55.30;;;;;;219581;1280;22539;-50
2023/08/04 09:26:16;;;;;;;0.40;0.40;;;25.50;55.90;;;;;;219357;1283;22788;-55
2023/08/04 09:31:20;;;;;;;1.20;0.60;;;25.50;54.40;;;;;;219406;1285;22581;-59
2023/08/04 09:36:24;;;;;;;3.80;0.90;;;25.60;55.40;;;;;;219451;1283;22527;-57
2023/08/04 09:41:32;;;;;;;1.90;0.60;;;25.70;54.50;;;;;;219431;1280;22531;-61
2023/08/04 09:46:51;;;;;;;0.60;0.60;;;25.60;55.00;;;;;;219764;1283;24676;-54
2023/08/04 09:51:56;;;;;;;1.20;0.80;;;25.70;55.50;;;;;;219354;1273;25249;-54
2023/08/04 09:57:02;;;;;;;0.80;0.70;;;25.80;54.80;;;;;;219320;1286;24231;-52
2023/08/04 10:02:08;;;;;;;3.70;0.60;;;25.70;54.70;;;;;;219386;1283;24211;-57
2023/08/04 10:07:13;;;;;;;1.30;0.60;;;25.80;54.20;;;;;;219449;1280;22563;-56
2023/08/04 10:12:18;;;;;;;1.70;0.70;;;25.90;55.10;;;;;;219368;1286;25923;-57
2023/08/04 10:17:22;;;;;;;4.00;0.60;;;26.00;53.90;;;;;;219685;1286;22531;-57
2023/08/04 10:22:27;;;;;;;0.80;0.60;;;26.00;53.40;;;;;;219342;1280;23808;-56
2023/08/04 10:27:45;;;;;;;1.10;0.50;;;26.10;53.60;;;;;;219332;1282;23177;-57
2023/08/04 10:32:50;;;;;;;0.80;0.70;;;26.10;52.90;;;;;;219531;1283;23567;-61
2023/08/04 10:37:59;;;;;;;1.40;0.60;;;26.10;53.20;;;;;;219339;1277;24772;-58
2023/08/04 10:43:05;;;;;;;1.40;0.60;;;26.20;53.00;;;;;;219355;1283;22537;-58
2023/08/04 10:48:14;;;;;;;1.10;0.50;;;26.20;52.20;;;;;;219523;1273;23046;-58
2023/08/04 10:53:18;;;;;;;1.30;0.70;;;26.30;52.00;;;;;;219360;1283;24250;-60
2023/08/04 10:58:25;;;;;;;2.90;0.60;;;26.30;52.30;;;;;;219447;1286;22636;-62
2023/08/04 11:03:33;;;;;;;2.70;0.70;;;26.10;53.00;;;;;;219155;1286;22762;-57
2023/08/04 11:08:37;;;;;;;1.10;0.60;;;26.00;52.50;;;;;;219449;1280;24346;-54
2023/08/04 11:13:42;;;;;;;5.10;1.60;;;26.20;52.70;;;;;;219438;1280;22552;-53
2023/08/04 11:18:46;;;;;;;2.10;1.00;;;26.20;52.70;;;;;;218838;1273;25155;-48
2023/08/04 11:23:51;;;;;;;2.20;0.80;;;26.20;53.20;;;;;;219608;1270;23872;-54
2023/08/04 11:28:59;;;;;;;1.00;0.70;;;26.50;52.70;;;;;;219436;1274;24252;-52
2023/08/04 11:34:04;;;;;;;0.70;0.60;;;26.50;52.40;;;;;;219340;1276;25484;-53
2023/08/04 11:39:08;;;;;;;0.80;0.40;;;26.20;52.40;;;;;;219192;1276;23979;-55
2023/08/04 11:44:15;;;;;;;0.70;0.40;;;26.20;52.80;;;;;;219172;1277;22550;-49
2023/08/04 11:49:20;;;;;;;1.60;0.50;;;26.10;52.00;;;;;;219239;1273;22923;-55
2023/08/04 11:54:24;;;;;;;0.60;0.60;;;26.10;53.20;;;;;;219654;1286;22665;-51
2023/08/04 11:59:28;;;;;;;0.80;0.50;;;26.30;51.90;;;;;;219401;1273;25470;-53
2023/08/04 12:04:33;;;;;;;1.10;0.50;;;26.40;51.60;;;;;;219418;1280;22526;-54
2023/08/04 12:09:39;;;;;;;1.20;0.40;;;26.20;51.70;;;;;;219325;1283;22527;-56
2023/08/04 12:15:04;;;;;;;0.50;0.50;;;26.30;51.30;;;;;;219482;1283;22574;-51
2023/08/04 12:20:10;;;;;;;0.50;0.40;;;26.00;51.50;;;;;;219409;1280;22643;-59
2023/08/04 12:25:14;;;;;;;2.30;0.40;;;26.20;51.30;;;;;;219349;1283;23896;-54
2023/08/04 12:30:18;;;;;;;2.30;0.50;;;26.40;50.50;;;;;;219258;1286;25488;-57
2023/08/04 12:35:23;;;;;;;0.60;0.50;;;26.40;50.70;;;;;;219431;1280;22624;-55
2023/08/04 12:40:27;;;;;;;1.10;0.50;;;26.20;51.60;;;;;;219378;1286;22809;-54
2023/08/04 12:45:31;;;;;;;1.10;0.40;;;26.10;51.40;;;;;;219143;1283;22786;-55
2023/08/04 12:50:35;;;;;;;1.60;0.40;;;26.40;50.80;;;;;;219219;1283;22643;-59
2023/08/04 12:55:40;;;;;;;2.80;1.00;;;26.50;50.80;;;;;;219337;1280;22536;-59
2023/08/04 13:00:45;;;;;;;0.80;0.60;;;26.40;51.30;;;;;;219145;1280;25462;-54
2023/08/04 13:05:49;;;;;;;1.30;0.80;;;26.50;51.10;;;;;;219508;1286;22663;-54
2023/08/04 13:10:53;;;;;;;1.10;0.70;;;26.30;51.70;;;;;;219422;1282;22697;-58
2023/08/04 13:15:58;;;;;;;1.40;0.90;;;26.60;50.10;;;;;;219210;1277;24250;-53
2023/08/04 13:21:03;;;;;;;2.90;0.70;;;26.70;49.80;;;;;;219342;1277;22549;-53
2023/08/04 13:26:08;;;;;;;1.00;0.60;;;26.70;49.70;;;;;;219541;1280;24397;-54
2023/08/04 13:31:12;;;;;;;1.40;0.70;;;26.50;50.50;;;;;;219596;1277;22781;-53
2023/08/04 13:36:16;;;;;;;2.80;0.80;;;26.40;51.00;;;;;;219353;1279;23570;-54
2023/08/04 13:41:20;;;;;;;1.20;0.70;;;26.50;50.90;;;;;;219282;1283;23945;-53
2023/08/04 13:46:24;;;;;;;2.00;0.80;;;26.60;51.00;;;;;;219462;1280;23001;-58
2023/08/04 13:51:29;;;;;;;3.40;1.10;;;26.80;50.30;;;;;;219603;1280;22537;-56
2023/08/04 13:56:33;;;;;;;1.50;0.90;;;26.50;51.50;;;;;;219426;1274;22523;-54
2023/08/04 14:01:38;;;;;;;1.70;0.80;;;26.50;51.60;;;;;;219408;1283;22527;-52
2023/08/04 14:06:42;;;;;;;2.20;0.80;;;26.40;52.20;;;;;;219405;1271;22646;-57
2023/08/04 14:11:46;;;;;;;1.80;1.00;;;26.30;52.60;;;;;;219307;1273;22533;-52
2023/08/04 14:16:51;;;;;;;0.70;0.70;;;26.40;52.40;;;;;;219278;1281;242441;-57
2023/08/04 14:21:55;;;;;;;0.50;0.50;;;26.50;52.50;;;;;;219481;1280;22536;-60
2023/08/04 14:27:00;;;;;;;1.20;0.80;;;26.50;51.40;;;;;;219123;1280;22766;-56
2023/08/04 14:32:05;;;;;;;1.20;0.70;;;26.40;51.70;;;;;;219413;1286;22530;-57
2023/08/04 14:37:09;;;;;;;1.40;0.60;;;26.50;52.20;;;;;;219482;1280;25353;-59
2023/08/04 14:42:13;;;;;;;2.00;0.90;;;26.50;52.10;;;;;;219319;1286;24266;-60
2023/08/04 14:47:17;;;;;;;1.10;0.80;;;26.50;52.10;;;;;;219637;1280;22690;-52
2023/08/04 14:52:22;;;;;;;0.80;0.80;;;26.30;52.30;;;;;;219342;1280;24363;-49
2023/08/04 14:57:26;;;;;;;2.00;1.00;;;26.50;52.50;;;;;;219486;1280;22643;-49
2023/08/04 15:02:33;;;;;;;2.00;1.40;;;26.60;52.30;;;;;;219437;1280;24326;-63
2023/08/04 15:07:37;;;;;;;1.00;0.80;;;26.50;52.70;;;;;;219703;1283;25242;-54
2023/08/04 15:12:42;;;;;;;3.10;0.70;;;26.50;52.70;;;;;;219262;1280;25242;-55
2023/08/04 15:17:46;;;;;;;1.00;0.80;;;26.50;52.80;;;;;;219204;1280;22533;-59
2023/08/04 15:22:50;;;;;;;1.10;0.70;;;26.60;53.00;;;;;;219345;1286;22577;-47
2023/08/04 15:27:54;;;;;;;0.80;0.60;;;26.60;53.20;;;;;;219392;1283;25409;-52
2023/08/04 15:32:58;;;;;;;1.90;0.90;;;26.50;53.30;;;;;;219488;1283;22628;-56
2023/08/04 15:38:03;;;;;;;12.40;1.20;;;26.60;53.50;;;;;;219284;1277;24228;-53
2023/08/04 15:43:09;;;;;;;2.90;0.80;;;26.50;54.00;;;;;;219165;1283;23035;-51
2023/08/04 15:48:19;;;;;;;3.40;1.00;;;26.50;53.90;;;;;;220785;1280;22540;-52
2023/08/04 15:53:33;;;;;;;1.40;0.90;;;26.60;54.20;;;;;;219423;1280;22676;-52
2023/08/04 15:58:37;;;;;;;2.30;1.00;;;26.50;54.00;;;;;;219332;1281;22710;-52
2023/08/04 16:03:41;;;;;;;1.50;0.90;;;26.50;54.00;;;;;;219271;1286;22527;-54
2023/08/04 16:08:46;;;;;;;4.70;0.90;;;26.50;53.90;;;;;;219510;1283;22552;-52
2023/08/04 16:13:50;;;;;;;3.00;0.80;;;26.50;54.00;;;;;;219421;1280;22538;-52
2023/08/04 16:18:55;;;;;;;2.30;1.30;;;26.50;54.40;;;;;;219333;1283;22612;-53
2023/08/04 16:24:01;;;;;;;5.80;1.30;;;26.50;54.00;;;;;;219358;1286;22530;-52
2023/08/04 16:29:06;;;;;;;5.00;1.80;;;26.50;54.10;;;;;;219318;1279;24296;-53
2023/08/04 16:34:10;;;;;;;1.80;1.20;;;26.50;54.00;;;;;;219460;1285;22535;-51
2023/08/04 16:39:15;;;;;;;2.30;1.30;;;26.60;54.30;;;;;;219340;1280;22665;-52
2023/08/04 16:44:23;;;;;;;2.00;1.00;;;26.50;54.20;;;;;;219443;1283;22548;-53
2023/08/04 16:49:27;;;;;;;3.20;1.20;;;26.50;54.70;;;;;;219343;1283;22676;-51
2023/08/04 16:54:32;;;;;;;2.40;1.00;;;26.60;54.50;;;;;;219391;1283;22653;-52
2023/08/04 16:59:36;;;;;;;3.10;1.20;;;26.50;54.60;;;;;;219559;1286;22531;-51
2023/08/04 17:04:41;;;;;;;3.60;1.50;;;26.50;54.70;;;;;;219392;1282;22586;-51
2023/08/04 17:09:45;;;;;;;19.30;4.10;;;26.50;55.50;;;;;;219390;1283;22594;-51
2023/08/04 17:14:53;;;;;;;10.00;2.70;;;26.60;60.60;;;;;;219411;1286;22539;-50
2023/08/04 17:19:58;;;;;;;7.40;1.90;;;26.70;59.10;;;;;;219462;1286;22661;-53
2023/08/04 17:25:02;;;;;;;5.70;2.00;;;26.80;60.60;;;;;;219529;1286;22549;-51
2023/08/04 17:30:08;;;;;;;7.90;2.80;;;26.70;59.80;;;;;;219375;1283;24295;-51
2023/08/04 17:35:12;;;;;;;5.10;3.00;;;26.70;59.50;;;;;;219415;1287;22537;-52
2023/08/04 17:40:16;;;;;;;5.10;2.60;;;26.60;60.10;;;;;;219498;1274;22530;-52
2023/08/04 17:45:21;;;;;;;6.70;2.30;;;26.70;59.70;;;;;;219458;1286;24240;-50
2023/08/04 17:50:25;;;;;;;7.80;2.00;;;26.60;59.00;;;;;;219410;1283;22665;-52
2023/08/04 17:55:29;;;;;;;6.90;2.10;;;26.60;58.60;;;;;;219349;1286;22894;-51
2023/08/04 18:00:33;;;;;;;7.80;2.10;;;26.60;59.90;;;;;;219383;1279;22527;-53
2023/08/04 18:05:39;;;;;;;4.90;1.60;;;26.70;59.00;;;;;;219308;1286;22540;-52
2023/08/04 18:10:47;;;;;;;6.10;1.90;;;26.70;59.30;;;;;;219425;1284;24213;-52
2023/08/04 18:15:55;;;;;;;4.00;1.60;;;26.60;58.60;;;;;;219327;1286;22573;-52
2023/08/04 18:20:59;;;;;;;5.20;1.90;;;26.60;58.80;;;;;;219424;1284;22590;-50
2023/08/04 18:26:07;;;;;;;6.70;2.30;;;26.60;58.00;;;;;;219400;1283;22540;-50
2023/08/04 18:31:11;;;;;;;5.80;1.90;;;26.50;58.30;;;;;;219455;1283;24194;-52
2023/08/04 18:36:17;;;;;;;2.70;1.70;;;26.50;58.10;;;;;;219429;1283;22616;-53
2023/08/04 18:41:24;;;;;;;5.60;1.90;;;26.50;58.10;;;;;;219454;1286;24234;-51
2023/08/04 18:46:29;;;;;;;3.90;1.90;;;26.50;58.00;;;;;;219395;1264;26628;-54
2023/08/04 18:51:34;;;;;;;5.50;1.40;;;26.40;57.90;;;;;;219467;1286;22655;-53
2023/08/04 18:56:39;;;;;;;2.60;1.40;;;26.40;57.90;;;;;;219457;1281;23284;-51
2023/08/04 19:01:44;;;;;;;3.10;1.50;;;26.40;57.80;;;;;;219540;1284;22553;-51
2023/08/04 19:06:57;;;;;;;6.70;1.50;;;26.40;58.20;;;;;;219415;1286;22530;-49
2023/08/04 19:12:03;;;;;;;5.30;1.90;;;26.40;58.20;;;;;;219412;1287;25376;-50
2023/08/04 19:17:08;;;;;;;3.80;1.90;;;26.40;57.80;;;;;;219403;1286;25843;-52
2023/08/04 19:22:13;;;;;;;2.30;1.80;;;26.40;57.70;;;;;;219428;1280;24294;-56
2023/08/04 19:27:19;;;;;;;3.10;1.60;;;26.40;57.70;;;;;;219481;1285;22546;-54
2023/08/04 19:32:23;;;;;;;3.90;1.30;;;26.40;57.70;;;;;;219519;1286;22530;-54
2023/08/04 19:37:28;;;;;;;2.80;1.30;;;26.40;57.70;;;;;;219265;1286;22558;-57
2023/08/04 19:42:33;;;;;;;1.70;1.00;;;26.40;58.00;;;;;;219470;1286;24211;-55
2023/08/04 19:47:38;;;;;;;3.30;1.10;;;26.30;57.70;;;;;;219576;1287;24402;-55
2023/08/04 19:52:46;;;;;;;3.60;1.50;;;26.40;57.70;;;;;;219440;1286;22650;-56
2023/08/04 19:57:50;;;;;;;2.10;1.00;;;26.40;57.70;;;;;;219198;1286;25432;-55
2023/08/04 20:02:55;;;;;;;1.40;1.00;;;26.30;57.80;;;;;;219426;1286;22546;-56
2023/08/04 20:08:00;;;;;;;2.70;1.60;;;26.30;57.60;;;;;;219446;1283;22577;-55
2023/08/04 20:13:05;;;;;;;2.00;1.40;;;26.30;57.90;;;;;;219478;1283;24204;-56
2023/08/04 20:18:12;;;;;;;2.90;1.30;;;26.30;57.60;;;;;;219390;1286;26901;-55
2023/08/04 20:23:17;;;;;;;1.70;1.00;;;26.30;57.60;;;;;;219424;1280;24246;-55
2023/08/04 20:28:22;;;;;;;3.20;1.30;;;26.30;57.60;;;;;;219448;1283;22690;-56
2023/08/04 20:33:30;;;;;;;1.70;1.10;;;26.30;57.60;;;;;;219171;1284;22656;-55
2023/08/04 20:38:36;;;;;;;2.50;1.20;;;26.30;57.90;;;;;;219462;1285;24371;-60
2023/08/04 20:43:42;;;;;;;2.40;1.10;;;26.30;57.60;;;;;;219550;1283;22563;-55
2023/08/04 20:48:47;;;;;;;1.80;1.70;;;26.30;57.60;;;;;;219505;1286;24378;-56
2023/08/04 20:53:52;;;;;;;1.20;1.10;;;26.20;57.60;;;;;;219475;1284;22533;-57
2023/08/04 20:58:56;;;;;;;1.80;1.20;;;26.30;57.60;;;;;;219419;1283;25412;-56
2023/08/04 21:04:01;;;;;;;0.90;0.80;;;26.30;57.70;;;;;;219294;1287;24895;-57
2023/08/04 21:09:05;;;;;;;0.90;0.80;;;26.20;57.50;;;;;;219288;1286;24363;-55
2023/08/04 21:14:10;;;;;;;2.30;1.40;;;26.30;57.60;;;;;;219562;1286;22540;-54
2023/08/04 21:19:14;;;;;;;1.70;1.40;;;26.20;57.50;;;;;;219278;1284;22517;-56
2023/08/04 21:24:18;;;;;;;1.50;1.20;;;26.20;57.50;;;;;;219597;1286;22660;-55
2023/08/04 21:29:23;;;;;;;1.40;1.00;;;26.20;57.50;;;;;;219512;1283;25402;-55
2023/08/04 21:34:27;;;;;;;0.90;0.90;;;26.20;57.50;;;;;;219392;1286;22537;-56
2023/08/04 21:39:31;;;;;;;1.50;1.00;;;26.20;57.60;;;;;;219547;1287;22600;-55
2023/08/04 21:44:35;;;;;;;1.10;0.80;;;26.20;57.60;;;;;;219438;1287;22537;-54
2023/08/04 21:49:39;;;;;;;1.80;1.20;;;26.20;57.90;;;;;;219412;1283;22549;-55
2023/08/04 21:54:44;;;;;;;1.10;0.90;;;26.20;57.60;;;;;;219320;1277;22582;-58
2023/08/04 21:59:48;;;;;;;1.20;1.00;;;26.20;57.60;;;;;;219401;1287;22761;-56
2023/08/04 22:04:55;;;;;;;1.90;1.10;;;26.20;57.90;;;;;;219522;1287;22544;-55
2023/08/04 22:09:59;;;;;;;1.10;1.00;;;26.10;57.60;;;;;;219437;1286;22537;-56
2023/08/04 22:15:04;;;;;;;2.00;1.10;;;26.10;57.60;;;;;;219567;1286;24369;-56
2023/08/04 22:20:11;;;;;;;3.50;1.00;;;26.10;57.60;;;;;;219329;1286;22634;-56
2023/08/04 22:25:15;;;;;;;1.20;1.10;;;26.10;57.60;;;;;;219628;1283;22678;-56
2023/08/04 22:30:19;;;;;;;0.90;0.80;;;26.10;58.10;;;;;;219596;1283;22534;-56
2023/08/04 22:35:23;;;;;;;1.20;1.10;;;26.10;57.60;;;;;;219481;1283;25501;-55
2023/08/04 22:40:28;;;;;;;1.30;1.20;;;26.10;57.60;;;;;;219417;1273;23956;-55
2023/08/04 22:45:33;;;;;;;1.60;0.90;;;26.10;57.60;;;;;;219334;1283;22617;-56
2023/08/04 22:50:37;;;;;;;2.20;1.00;;;26.10;58.00;;;;;;219386;1287;22551;-54
2023/08/04 22:55:42;;;;;;;2.90;1.00;;;26.10;57.70;;;;;;219369;1273;22669;-54
2023/08/04 23:00:46;;;;;;;0.80;0.80;;;26.10;57.70;;;;;;219543;1287;22539;-52
2023/08/04 23:05:52;;;;;;;1.10;1.00;;;26.10;58.00;;;;;;219537;1287;22634;-52
2023/08/04 23:10:57;;;;;;;1.40;1.00;;;26.10;57.40;;;;;;219416;1287;22540;-54
2023/08/04 23:16:01;;;;;;;1.10;1.00;;;26.00;57.60;;;;;;219294;1287;22527;-53
2023/08/04 23:21:05;;;;;;;1.10;1.00;;;26.00;57.60;;;;;;219411;1286;22537;-53
2023/08/04 23:26:10;;;;;;;1.10;1.00;;;26.10;58.10;;;;;;219377;1287;22538;-55
2023/08/04 23:31:14;;;;;;;1.30;1.00;;;26.00;58.00;;;;;;219352;1274;22540;-53
2023/08/04 23:36:18;;;;;;;1.30;1.20;;;26.00;57.70;;;;;;219644;1283;22534;-52
2023/08/04 23:41:23;;;;;;;0.90;0.80;;;26.00;57.70;;;;;;219328;1287;22533;-54
2023/08/04 23:46:27;;;;;;;0.90;0.90;;;26.00;57.70;;;;;;219621;1282;22596;-53
2023/08/04 23:51:31;;;;;;;1.00;0.90;;;26.00;57.70;;;;;;219392;1286;23871;-54
2023/08/04 23:56:35;;;;;;;1.00;1.00;;;26.00;57.70;;;;;;219407;1287;22534;-54
